sensor_id;sensor_type;location;lat;lon;timestamp;temperature;humidity
44047;DHT22;29713;-33.888;151.150;2022-12-07T00:01:12;26.00;99.90
44047;DHT22;29713;-33.888;151.150;2022-12-07T00:03:41;26.00;99.90
44047;DHT22;29713;-33.888;151.150;2022-12-07T00:06:11;26.00;99.90
44047;DHT22;29713;-33.888;151.150;2022-12-07T00:08:39;26.10;99.90
44047;DHT22;29713;-33.888;151.150;2022-12-07T00:11:10;26.10;99.90
44047;DHT22;29713;-33.888;151.150;2022-12-07T00:13:38;26.20;99.90
44047;DHT22;29713;-33.888;151.150;2022-12-07T00:16:14;26.40;99.90
44047;DHT22;29713;-33.888;151.150;2022-12-07T00:18:42;26.60;99.90
44047;DHT22;29713;-33.888;151.150;2022-12-07T00:21:11;26.70;99.90
44047;DHT22;29713;-33.888;151.150;2022-12-07T00:23:39;26.80;99.90
44047;DHT22;29713;-33.888;151.150;2022-12-07T00:26:09;26.90;99.90
44047;DHT22;29713;-33.888;151.150;2022-12-07T00:28:37;27.00;99.90
44047;DHT22;29713;-33.888;151.150;2022-12-07T00:31:07;27.10;99.90
44047;DHT22;29713;-33.888;151.150;2022-12-07T00:33:38;27.30;99.90
44047;DHT22;29713;-33.888;151.150;2022-12-07T00:36:09;27.30;99.90
44047;DHT22;29713;-33.888;151.150;2022-12-07T00:38:37;27.50;99.90
44047;DHT22;29713;-33.888;151.150;2022-12-07T00:41:14;27.70;99.90
44047;DHT22;29713;-33.888;151.150;2022-12-07T00:43:43;28.00;99.90
44047;DHT22;29713;-33.888;151.150;2022-12-07T00:46:11;28.20;99.90
44047;DHT22;29713;-33.888;151.150;2022-12-07T00:48:39;28.20;99.90
44047;DHT22;29713;-33.888;151.150;2022-12-07T00:51:07;28.50;99.90
44047;DHT22;29713;-33.888;151.150;2022-12-07T00:53:36;28.70;99.90
44047;DHT22;29713;-33.888;151.150;2022-12-07T00:56:13;28.90;99.90
44047;DHT22;29713;-33.888;151.150;2022-12-07T00:58:41;29.10;99.90
44047;DHT22;29713;-33.888;151.150;2022-12-07T01:01:10;28.90;99.90
44047;DHT22;29713;-33.888;151.150;2022-12-07T01:03:38;28.70;99.90
44047;DHT22;29713;-33.888;151.150;2022-12-07T01:06:05;28.40;99.90
44047;DHT22;29713;-33.888;151.150;2022-12-07T01:08:34;28.10;99.90
44047;DHT22;29713;-33.888;151.150;2022-12-07T01:11:04;27.90;99.90
44047;DHT22;29713;-33.888;151.150;2022-12-07T01:13:33;27.70;99.90
44047;DHT22;29713;-33.888;151.150;2022-12-07T01:16:04;27.60;99.90
44047;DHT22;29713;-33.888;151.150;2022-12-07T01:18:35;27.50;99.90
44047;DHT22;29713;-33.888;151.150;2022-12-07T01:21:10;27.30;99.90
44047;DHT22;29713;-33.888;151.150;2022-12-07T01:23:38;27.20;99.90
44047;DHT22;29713;-33.888;151.150;2022-12-07T01:26:09;27.10;99.90
44047;DHT22;29713;-33.888;151.150;2022-12-07T01:28:38;27.00;99.90
44047;DHT22;29713;-33.888;151.150;2022-12-07T01:31:08;26.90;99.90
44047;DHT22;29713;-33.888;151.150;2022-12-07T01:33:38;26.80;99.90
44047;DHT22;29713;-33.888;151.150;2022-12-07T01:38:44;26.70;99.90
44047;DHT22;29713;-33.888;151.150;2022-12-07T01:41:12;26.60;99.90
44047;DHT22;29713;-33.888;151.150;2022-12-07T01:46:38;26.50;99.90
44047;DHT22;29713;-33.888;151.150;2022-12-07T01:49:10;26.50;99.90
44047;DHT22;29713;-33.888;151.150;2022-12-07T01:51:41;26.50;99.90
44047;DHT22;29713;-33.888;151.150;2022-12-07T01:54:10;26.50;99.90
44047;DHT22;29713;-33.888;151.150;2022-12-07T01:56:41;26.50;99.90
44047;DHT22;29713;-33.888;151.150;2022-12-07T01:59:11;26.50;99.90
44047;DHT22;29713;-33.888;151.150;2022-12-07T02:01:38;26.40;99.90
44047;DHT22;29713;-33.888;151.150;2022-12-07T02:04:06;26.40;99.90
44047;DHT22;29713;-33.888;151.150;2022-12-07T02:06:38;26.40;99.90
44047;DHT22;29713;-33.888;151.150;2022-12-07T02:09:05;26.50;99.90
44047;DHT22;29713;-33.888;151.150;2022-12-07T02:11:33;26.60;99.90
44047;DHT22;29713;-33.888;151.150;2022-12-07T02:14:00;26.70;99.90
44047;DHT22;29713;-33.888;151.150;2022-12-07T02:16:38;26.90;99.90
44047;DHT22;29713;-33.888;151.150;2022-12-07T02:25:13;27.00;99.90
44047;DHT22;29713;-33.888;151.150;2022-12-07T02:27:43;27.10;99.90
44047;DHT22;29713;-33.888;151.150;2022-12-07T02:30:15;27.20;99.90
44047;DHT22;29713;-33.888;151.150;2022-12-07T02:33:03;27.30;99.90
44047;DHT22;29713;-33.888;151.150;2022-12-07T02:35:42;27.30;99.90
44047;DHT22;29713;-33.888;151.150;2022-12-07T02:38:16;27.30;99.90
44047;DHT22;29713;-33.888;151.150;2022-12-07T02:40:50;27.30;99.90
44047;DHT22;29713;-33.888;151.150;2022-12-07T02:43:38;27.20;99.90
44047;DHT22;29713;-33.888;151.150;2022-12-07T02:46:16;27.10;99.90
44047;DHT22;29713;-33.888;151.150;2022-12-07T02:48:44;27.00;99.90
44047;DHT22;29713;-33.888;151.150;2022-12-07T02:51:12;26.90;99.90
44047;DHT22;29713;-33.888;151.150;2022-12-07T02:53:42;26.80;99.90
44047;DHT22;29713;-33.888;151.150;2022-12-07T02:56:13;26.70;99.90
44047;DHT22;29713;-33.888;151.150;2022-12-07T02:59:00;26.70;99.90
44047;DHT22;29713;-33.888;151.150;2022-12-07T03:01:59;26.60;99.90
44047;DHT22;29713;-33.888;151.150;2022-12-07T03:04:41;26.60;99.90
44047;DHT22;29713;-33.888;151.150;2022-12-07T03:10:12;26.40;99.90
44047;DHT22;29713;-33.888;151.150;2022-12-07T03:12:58;26.30;99.90
44047;DHT22;29713;-33.888;151.150;2022-12-07T03:18:19;26.20;99.90
44047;DHT22;29713;-33.888;151.150;2022-12-07T03:20:51;26.10;99.90
44047;DHT22;29713;-33.888;151.150;2022-12-07T03:23:20;26.20;99.90
44047;DHT22;29713;-33.888;151.150;2022-12-07T03:25:52;26.20;99.90
44047;DHT22;29713;-33.888;151.150;2022-12-07T03:28:23;26.20;99.90
44047;DHT22;29713;-33.888;151.150;2022-12-07T03:33:33;26.30;99.90
44047;DHT22;29713;-33.888;151.150;2022-12-07T03:36:12;26.40;99.90
44047;DHT22;29713;-33.888;151.150;2022-12-07T03:38:53;26.40;99.90
44047;DHT22;29713;-33.888;151.150;2022-12-07T03:41:31;26.40;99.90
44047;DHT22;29713;-33.888;151.150;2022-12-07T03:43:59;26.40;99.90
44047;DHT22;29713;-33.888;151.150;2022-12-07T03:46:48;26.40;99.90
44047;DHT22;29713;-33.888;151.150;2022-12-07T03:52:36;26.50;99.90
44047;DHT22;29713;-33.888;151.150;2022-12-07T03:55:28;26.60;99.90
44047;DHT22;29713;-33.888;151.150;2022-12-07T03:58:00;26.60;99.90
44047;DHT22;29713;-33.888;151.150;2022-12-07T04:00:28;26.70;99.90
44047;DHT22;29713;-33.888;151.150;2022-12-07T04:02:56;26.70;99.90
44047;DHT22;29713;-33.888;151.150;2022-12-07T04:05:23;26.70;99.90
44047;DHT22;29713;-33.888;151.150;2022-12-07T04:07:51;26.70;99.90
44047;DHT22;29713;-33.888;151.150;2022-12-07T04:10:19;26.60;99.90
44047;DHT22;29713;-33.888;151.150;2022-12-07T04:12:46;26.60;99.90
44047;DHT22;29713;-33.888;151.150;2022-12-07T04:15:14;26.50;99.90
44047;DHT22;29713;-33.888;151.150;2022-12-07T04:17:42;26.40;99.90
44047;DHT22;29713;-33.888;151.150;2022-12-07T04:20:10;26.30;99.90
44047;DHT22;29713;-33.888;151.150;2022-12-07T04:22:37;26.20;99.90
44047;DHT22;29713;-33.888;151.150;2022-12-07T04:25:05;26.20;99.90
44047;DHT22;29713;-33.888;151.150;2022-12-07T04:27:33;26.20;99.90
44047;DHT22;29713;-33.888;151.150;2022-12-07T04:30:00;26.30;98.90
44047;DHT22;29713;-33.888;151.150;2022-12-07T04:32:28;26.40;98.70
44047;DHT22;29713;-33.888;151.150;2022-12-07T04:34:55;26.40;97.80
44047;DHT22;29713;-33.888;151.150;2022-12-07T04:37:23;26.50;90.00
44047;DHT22;29713;-33.888;151.150;2022-12-07T04:39:50;26.60;84.40
44047;DHT22;29713;-33.888;151.150;2022-12-07T04:42:18;26.60;76.00
44047;DHT22;29713;-33.888;151.150;2022-12-07T04:44:45;26.70;74.70
44047;DHT22;29713;-33.888;151.150;2022-12-07T04:47:12;26.70;72.70
44047;DHT22;29713;-33.888;151.150;2022-12-07T04:49:39;26.80;68.90
44047;DHT22;29713;-33.888;151.150;2022-12-07T04:52:07;26.80;68.70
44047;DHT22;29713;-33.888;151.150;2022-12-07T04:54:34;26.80;70.20
44047;DHT22;29713;-33.888;151.150;2022-12-07T04:57:02;26.90;67.10
44047;DHT22;29713;-33.888;151.150;2022-12-07T04:59:29;26.90;67.80
44047;DHT22;29713;-33.888;151.150;2022-12-07T05:01:56;26.90;67.20
44047;DHT22;29713;-33.888;151.150;2022-12-07T05:04:23;26.90;67.30
44047;DHT22;29713;-33.888;151.150;2022-12-07T05:06:51;26.80;65.20
44047;DHT22;29713;-33.888;151.150;2022-12-07T05:09:18;26.90;69.60
44047;DHT22;29713;-33.888;151.150;2022-12-07T05:11:46;26.90;69.10
44047;DHT22;29713;-33.888;151.150;2022-12-07T05:14:14;26.90;66.90
44047;DHT22;29713;-33.888;151.150;2022-12-07T05:16:43;26.90;68.30
44047;DHT22;29713;-33.888;151.150;2022-12-07T05:19:11;26.90;67.50
44047;DHT22;29713;-33.888;151.150;2022-12-07T05:21:39;26.80;69.50
44047;DHT22;29713;-33.888;151.150;2022-12-07T05:24:09;26.70;68.50
44047;DHT22;29713;-33.888;151.150;2022-12-07T05:26:36;26.60;68.40
44047;DHT22;29713;-33.888;151.150;2022-12-07T05:29:04;26.60;69.30
44047;DHT22;29713;-33.888;151.150;2022-12-07T05:31:32;26.50;69.70
44047;DHT22;29713;-33.888;151.150;2022-12-07T05:33:59;26.50;71.60
44047;DHT22;29713;-33.888;151.150;2022-12-07T05:36:26;26.40;69.50
44047;DHT22;29713;-33.888;151.150;2022-12-07T05:38:55;26.40;70.00
44047;DHT22;29713;-33.888;151.150;2022-12-07T05:41:22;26.30;69.80
44047;DHT22;29713;-33.888;151.150;2022-12-07T05:44:08;26.30;69.70
44047;DHT22;29713;-33.888;151.150;2022-12-07T05:46:35;26.30;70.20
44047;DHT22;29713;-33.888;151.150;2022-12-07T05:49:03;26.30;71.60
44047;DHT22;29713;-33.888;151.150;2022-12-07T05:51:30;26.20;71.10
44047;DHT22;29713;-33.888;151.150;2022-12-07T05:53:57;26.20;70.60
44047;DHT22;29713;-33.888;151.150;2022-12-07T05:56:25;26.10;70.10
44047;DHT22;29713;-33.888;151.150;2022-12-07T05:58:53;26.10;70.80
44047;DHT22;29713;-33.888;151.150;2022-12-07T06:01:39;26.10;70.20
44047;DHT22;29713;-33.888;151.150;2022-12-07T06:04:06;26.00;72.30
44047;DHT22;29713;-33.888;151.150;2022-12-07T06:06:34;26.00;77.70
44047;DHT22;29713;-33.888;151.150;2022-12-07T06:09:02;26.00;71.00
44047;DHT22;29713;-33.888;151.150;2022-12-07T06:11:29;25.90;72.20
44047;DHT22;29713;-33.888;151.150;2022-12-07T06:14:14;25.90;72.00
44047;DHT22;29713;-33.888;151.150;2022-12-07T06:16:42;25.90;72.20
44047;DHT22;29713;-33.888;151.150;2022-12-07T06:19:09;25.80;72.90
44047;DHT22;29713;-33.888;151.150;2022-12-07T06:21:36;25.80;73.30
44047;DHT22;29713;-33.888;151.150;2022-12-07T06:24:04;25.80;74.60
44047;DHT22;29713;-33.888;151.150;2022-12-07T06:26:32;25.80;72.40
44047;DHT22;29713;-33.888;151.150;2022-12-07T06:28:59;25.80;74.00
44047;DHT22;29713;-33.888;151.150;2022-12-07T06:31:26;25.70;73.50
44047;DHT22;29713;-33.888;151.150;2022-12-07T06:34:05;25.70;77.50
44047;DHT22;29713;-33.888;151.150;2022-12-07T06:36:33;25.70;79.30
44047;DHT22;29713;-33.888;151.150;2022-12-07T06:39:00;25.60;82.90
44047;DHT22;29713;-33.888;151.150;2022-12-07T06:41:28;25.50;86.10
44047;DHT22;29713;-33.888;151.150;2022-12-07T06:43:55;25.50;87.30
44047;DHT22;29713;-33.888;151.150;2022-12-07T06:46:23;25.50;90.20
44047;DHT22;29713;-33.888;151.150;2022-12-07T06:48:50;25.50;90.00
44047;DHT22;29713;-33.888;151.150;2022-12-07T06:51:18;25.60;90.60
44047;DHT22;29713;-33.888;151.150;2022-12-07T06:53:46;25.60;91.70
44047;DHT22;29713;-33.888;151.150;2022-12-07T06:56:14;25.50;91.60
44047;DHT22;29713;-33.888;151.150;2022-12-07T06:58:41;25.50;92.60
44047;DHT22;29713;-33.888;151.150;2022-12-07T07:01:10;25.40;93.40
44047;DHT22;29713;-33.888;151.150;2022-12-07T07:03:38;25.40;94.30
44047;DHT22;29713;-33.888;151.150;2022-12-07T07:06:06;25.30;93.30
44047;DHT22;29713;-33.888;151.150;2022-12-07T07:08:37;25.30;93.60
44047;DHT22;29713;-33.888;151.150;2022-12-07T07:11:06;25.20;94.00
44047;DHT22;29713;-33.888;151.150;2022-12-07T07:13:34;25.20;94.50
44047;DHT22;29713;-33.888;151.150;2022-12-07T07:16:01;25.20;95.10
44047;DHT22;29713;-33.888;151.150;2022-12-07T07:18:29;25.20;95.40
44047;DHT22;29713;-33.888;151.150;2022-12-07T07:20:56;25.10;95.80
44047;DHT22;29713;-33.888;151.150;2022-12-07T07:23:23;25.10;96.20
44047;DHT22;29713;-33.888;151.150;2022-12-07T07:25:51;25.00;96.60
44047;DHT22;29713;-33.888;151.150;2022-12-07T07:28:18;25.00;96.40
44047;DHT22;29713;-33.888;151.150;2022-12-07T07:30:45;25.00;96.40
44047;DHT22;29713;-33.888;151.150;2022-12-07T07:33:13;24.90;96.80
44047;DHT22;29713;-33.888;151.150;2022-12-07T07:35:40;24.90;96.90
44047;DHT22;29713;-33.888;151.150;2022-12-07T07:38:08;24.90;97.50
44047;DHT22;29713;-33.888;151.150;2022-12-07T07:40:35;24.80;97.80
44047;DHT22;29713;-33.888;151.150;2022-12-07T07:43:03;24.80;98.20
44047;DHT22;29713;-33.888;151.150;2022-12-07T07:45:31;24.70;98.60
44047;DHT22;29713;-33.888;151.150;2022-12-07T07:47:58;24.60;99.10
44047;DHT22;29713;-33.888;151.150;2022-12-07T07:50:26;24.60;99.60
44047;DHT22;29713;-33.888;151.150;2022-12-07T07:52:53;24.60;99.90
44047;DHT22;29713;-33.888;151.150;2022-12-07T07:55:20;24.50;99.90
44047;DHT22;29713;-33.888;151.150;2022-12-07T07:57:48;24.50;99.90
44047;DHT22;29713;-33.888;151.150;2022-12-07T08:00:16;24.50;99.90
44047;DHT22;29713;-33.888;151.150;2022-12-07T08:02:44;24.40;99.90
44047;DHT22;29713;-33.888;151.150;2022-12-07T08:05:13;24.50;99.90
44047;DHT22;29713;-33.888;151.150;2022-12-07T08:07:40;24.40;99.90
44047;DHT22;29713;-33.888;151.150;2022-12-07T08:10:11;24.40;99.90
44047;DHT22;29713;-33.888;151.150;2022-12-07T08:12:40;24.40;99.90
44047;DHT22;29713;-33.888;151.150;2022-12-07T08:15:27;24.30;99.90
44047;DHT22;29713;-33.888;151.150;2022-12-07T08:17:55;24.30;99.90
44047;DHT22;29713;-33.888;151.150;2022-12-07T08:20:23;24.30;99.90
44047;DHT22;29713;-33.888;151.150;2022-12-07T08:22:50;24.30;99.90
44047;DHT22;29713;-33.888;151.150;2022-12-07T08:25:18;24.20;99.90
44047;DHT22;29713;-33.888;151.150;2022-12-07T08:27:45;24.20;99.90
44047;DHT22;29713;-33.888;151.150;2022-12-07T08:30:13;24.10;99.90
44047;DHT22;29713;-33.888;151.150;2022-12-07T08:32:40;24.10;99.90
44047;DHT22;29713;-33.888;151.150;2022-12-07T08:35:08;24.20;99.90
44047;DHT22;29713;-33.888;151.150;2022-12-07T08:37:39;24.20;99.90
44047;DHT22;29713;-33.888;151.150;2022-12-07T08:40:08;24.10;99.90
44047;DHT22;29713;-33.888;151.150;2022-12-07T08:42:39;24.10;99.90
44047;DHT22;29713;-33.888;151.150;2022-12-07T08:45:09;24.10;99.90
44047;DHT22;29713;-33.888;151.150;2022-12-07T08:47:39;24.10;99.90
44047;DHT22;29713;-33.888;151.150;2022-12-07T08:50:08;24.00;99.90
44047;DHT22;29713;-33.888;151.150;2022-12-07T08:52:37;24.00;99.90
44047;DHT22;29713;-33.888;151.150;2022-12-07T08:55:05;24.00;99.90
44047;DHT22;29713;-33.888;151.150;2022-12-07T08:57:34;24.00;99.90
44047;DHT22;29713;-33.888;151.150;2022-12-07T09:00:05;24.00;99.90
44047;DHT22;29713;-33.888;151.150;2022-12-07T09:02:33;23.90;99.90
44047;DHT22;29713;-33.888;151.150;2022-12-07T09:05:00;23.90;99.90
44047;DHT22;29713;-33.888;151.150;2022-12-07T09:07:28;23.90;99.90
44047;DHT22;29713;-33.888;151.150;2022-12-07T09:10:00;23.90;99.90
44047;DHT22;29713;-33.888;151.150;2022-12-07T09:12:27;23.90;99.90
44047;DHT22;29713;-33.888;151.150;2022-12-07T09:14:55;23.90;99.90
44047;DHT22;29713;-33.888;151.150;2022-12-07T09:17:22;23.90;99.90
44047;DHT22;29713;-33.888;151.150;2022-12-07T09:19:50;23.80;99.90
44047;DHT22;29713;-33.888;151.150;2022-12-07T09:22:18;23.80;99.90
44047;DHT22;29713;-33.888;151.150;2022-12-07T09:24:46;23.80;99.90
44047;DHT22;29713;-33.888;151.150;2022-12-07T09:27:16;23.80;99.90
44047;DHT22;29713;-33.888;151.150;2022-12-07T09:29:45;23.80;99.90
44047;DHT22;29713;-33.888;151.150;2022-12-07T09:32:12;23.80;99.90
44047;DHT22;29713;-33.888;151.150;2022-12-07T09:34:39;23.80;99.90
44047;DHT22;29713;-33.888;151.150;2022-12-07T09:37:07;23.70;99.90
44047;DHT22;29713;-33.888;151.150;2022-12-07T09:39:34;23.70;99.90
44047;DHT22;29713;-33.888;151.150;2022-12-07T09:42:05;23.70;99.90
44047;DHT22;29713;-33.888;151.150;2022-12-07T09:44:34;23.70;99.90
44047;DHT22;29713;-33.888;151.150;2022-12-07T09:47:02;23.70;99.90
44047;DHT22;29713;-33.888;151.150;2022-12-07T09:49:31;23.70;99.90
44047;DHT22;29713;-33.888;151.150;2022-12-07T09:52:25;23.60;99.90
44047;DHT22;29713;-33.888;151.150;2022-12-07T09:54:53;23.60;99.90
44047;DHT22;29713;-33.888;151.150;2022-12-07T09:57:32;23.60;99.90
44047;DHT22;29713;-33.888;151.150;2022-12-07T10:00:10;23.60;99.90
44047;DHT22;29713;-33.888;151.150;2022-12-07T10:02:46;23.50;99.90
44047;DHT22;29713;-33.888;151.150;2022-12-07T10:05:27;23.50;99.90
44047;DHT22;29713;-33.888;151.150;2022-12-07T10:07:57;23.50;99.90
44047;DHT22;29713;-33.888;151.150;2022-12-07T10:10:43;23.50;99.90
44047;DHT22;29713;-33.888;151.150;2022-12-07T10:13:13;23.50;99.90
44047;DHT22;29713;-33.888;151.150;2022-12-07T10:15:51;23.50;99.90
44047;DHT22;29713;-33.888;151.150;2022-12-07T10:21:18;23.50;99.90
44047;DHT22;29713;-33.888;151.150;2022-12-07T10:24:13;23.50;99.90
44047;DHT22;29713;-33.888;151.150;2022-12-07T10:26:50;23.40;99.90
44047;DHT22;29713;-33.888;151.150;2022-12-07T10:32:35;23.30;99.90
44047;DHT22;29713;-33.888;151.150;2022-12-07T10:34:43;23.40;99.90
44047;DHT22;29713;-33.888;151.150;2022-12-07T10:39:45;23.20;99.90
44047;DHT22;29713;-33.888;151.150;2022-12-07T10:42:27;23.20;99.90
44047;DHT22;29713;-33.888;151.150;2022-12-07T10:45:15;23.10;99.90
44047;DHT22;29713;-33.888;151.150;2022-12-07T10:50:59;23.00;99.90
44047;DHT22;29713;-33.888;151.150;2022-12-07T11:05:23;23.00;99.90
44047;DHT22;29713;-33.888;151.150;2022-12-07T11:11:23;23.00;99.90
44047;DHT22;29713;-33.888;151.150;2022-12-07T11:16:56;23.00;99.90
44047;DHT22;29713;-33.888;151.150;2022-12-07T11:24:48;22.90;99.90
44047;DHT22;29713;-33.888;151.150;2022-12-07T11:31:12;22.80;99.90
44047;DHT22;29713;-33.888;151.150;2022-12-07T11:33:17;22.80;99.90
44047;DHT22;29713;-33.888;151.150;2022-12-07T11:38:54;22.80;99.90
44047;DHT22;29713;-33.888;151.150;2022-12-07T11:41:42;22.80;99.90
44047;DHT22;29713;-33.888;151.150;2022-12-07T11:44:34;22.80;99.90
44047;DHT22;29713;-33.888;151.150;2022-12-07T11:47:11;22.80;99.90
44047;DHT22;29713;-33.888;151.150;2022-12-07T11:49:54;22.80;99.90
44047;DHT22;29713;-33.888;151.150;2022-12-07T11:55:24;22.70;99.90
44047;DHT22;29713;-33.888;151.150;2022-12-07T11:58:04;22.70;99.90
44047;DHT22;29713;-33.888;151.150;2022-12-07T12:00:38;22.80;99.90
44047;DHT22;29713;-33.888;151.150;2022-12-07T12:03:15;22.80;99.90
44047;DHT22;29713;-33.888;151.150;2022-12-07T12:05:46;22.70;99.90
44047;DHT22;29713;-33.888;151.150;2022-12-07T12:08:23;22.70;99.90
44047;DHT22;29713;-33.888;151.150;2022-12-07T12:20:00;22.70;99.90
44047;DHT22;29713;-33.888;151.150;2022-12-07T12:22:41;22.70;99.90
44047;DHT22;29713;-33.888;151.150;2022-12-07T12:25:29;22.70;99.90
44047;DHT22;29713;-33.888;151.150;2022-12-07T12:27:59;22.60;99.90
44047;DHT22;29713;-33.888;151.150;2022-12-07T12:30:39;22.60;99.90
44047;DHT22;29713;-33.888;151.150;2022-12-07T12:35:41;22.60;99.90
44047;DHT22;29713;-33.888;151.150;2022-12-07T12:38:29;22.50;99.90
44047;DHT22;29713;-33.888;151.150;2022-12-07T12:40:58;22.50;99.90
44047;DHT22;29713;-33.888;151.150;2022-12-07T12:43:47;22.50;99.90
44047;DHT22;29713;-33.888;151.150;2022-12-07T12:57:15;22.30;99.90
44047;DHT22;29713;-33.888;151.150;2022-12-07T13:02:36;22.30;99.90
44047;DHT22;29713;-33.888;151.150;2022-12-07T13:15:45;22.10;99.90
44047;DHT22;29713;-33.888;151.150;2022-12-07T13:23:37;21.90;99.90
44047;DHT22;29713;-33.888;151.150;2022-12-07T13:29:15;21.80;99.90
44047;DHT22;29713;-33.888;151.150;2022-12-07T13:31:48;21.80;99.90
44047;DHT22;29713;-33.888;151.150;2022-12-07T13:34:37;21.80;99.90
44047;DHT22;29713;-33.888;151.150;2022-12-07T13:37:30;21.80;99.90
44047;DHT22;29713;-33.888;151.150;2022-12-07T13:40:01;21.70;99.90
44047;DHT22;29713;-33.888;151.150;2022-12-07T13:42:39;21.70;99.90
44047;DHT22;29713;-33.888;151.150;2022-12-07T13:45:29;21.70;99.90
44047;DHT22;29713;-33.888;151.150;2022-12-07T13:48:52;21.70;99.90
44047;DHT22;29713;-33.888;151.150;2022-12-07T13:51:27;21.70;99.90
44047;DHT22;29713;-33.888;151.150;2022-12-07T13:54:11;21.60;99.90
44047;DHT22;29713;-33.888;151.150;2022-12-07T13:56:39;21.60;99.90
44047;DHT22;29713;-33.888;151.150;2022-12-07T13:59:26;21.60;99.90
44047;DHT22;29713;-33.888;151.150;2022-12-07T14:01:54;21.60;99.90
44047;DHT22;29713;-33.888;151.150;2022-12-07T14:04:36;21.50;99.90
44047;DHT22;29713;-33.888;151.150;2022-12-07T14:07:24;21.60;99.90
44047;DHT22;29713;-33.888;151.150;2022-12-07T14:10:28;21.50;99.90
44047;DHT22;29713;-33.888;151.150;2022-12-07T14:12:57;21.50;99.90
44047;DHT22;29713;-33.888;151.150;2022-12-07T14:15:31;21.50;99.90
44047;DHT22;29713;-33.888;151.150;2022-12-07T14:18:00;21.50;99.90
44047;DHT22;29713;-33.888;151.150;2022-12-07T14:20:39;21.40;99.90
44047;DHT22;29713;-33.888;151.150;2022-12-07T14:23:26;21.40;99.90
44047;DHT22;29713;-33.888;151.150;2022-12-07T14:25:54;21.40;99.90
44047;DHT22;29713;-33.888;151.150;2022-12-07T14:28:29;21.40;99.90
44047;DHT22;29713;-33.888;151.150;2022-12-07T14:30:58;21.30;99.90
44047;DHT22;29713;-33.888;151.150;2022-12-07T14:33:26;21.30;99.90
44047;DHT22;29713;-33.888;151.150;2022-12-07T14:35:54;21.30;99.90
44047;DHT22;29713;-33.888;151.150;2022-12-07T14:38:22;21.30;99.90
44047;DHT22;29713;-33.888;151.150;2022-12-07T14:40:52;21.30;99.90
44047;DHT22;29713;-33.888;151.150;2022-12-07T14:43:20;21.30;99.90
44047;DHT22;29713;-33.888;151.150;2022-12-07T14:45:48;21.20;99.90
44047;DHT22;29713;-33.888;151.150;2022-12-07T14:48:15;21.20;99.90
44047;DHT22;29713;-33.888;151.150;2022-12-07T14:50:51;21.20;99.90
44047;DHT22;29713;-33.888;151.150;2022-12-07T14:53:21;21.20;99.90
44047;DHT22;29713;-33.888;151.150;2022-12-07T14:55:51;21.20;99.90
44047;DHT22;29713;-33.888;151.150;2022-12-07T14:58:19;21.10;99.90
44047;DHT22;29713;-33.888;151.150;2022-12-07T15:00:47;21.10;99.90
44047;DHT22;29713;-33.888;151.150;2022-12-07T15:03:14;21.10;99.90
44047;DHT22;29713;-33.888;151.150;2022-12-07T15:05:42;21.10;99.90
44047;DHT22;29713;-33.888;151.150;2022-12-07T15:08:13;21.10;99.90
44047;DHT22;29713;-33.888;151.150;2022-12-07T15:10:41;21.00;99.90
44047;DHT22;29713;-33.888;151.150;2022-12-07T15:13:08;21.00;99.90
44047;DHT22;29713;-33.888;151.150;2022-12-07T15:15:54;21.00;99.90
44047;DHT22;29713;-33.888;151.150;2022-12-07T15:18:22;21.00;99.90
44047;DHT22;29713;-33.888;151.150;2022-12-07T15:20:50;21.00;99.90
44047;DHT22;29713;-33.888;151.150;2022-12-07T15:23:18;21.00;99.90
44047;DHT22;29713;-33.888;151.150;2022-12-07T15:25:47;20.90;99.90
44047;DHT22;29713;-33.888;151.150;2022-12-07T15:28:15;20.90;99.90
44047;DHT22;29713;-33.888;151.150;2022-12-07T15:30:44;20.90;99.90
44047;DHT22;29713;-33.888;151.150;2022-12-07T15:33:12;20.90;99.90
44047;DHT22;29713;-33.888;151.150;2022-12-07T15:35:45;20.80;99.90
44047;DHT22;29713;-33.888;151.150;2022-12-07T15:38:13;20.80;99.90
44047;DHT22;29713;-33.888;151.150;2022-12-07T15:40:40;20.80;99.90
44047;DHT22;29713;-33.888;151.150;2022-12-07T15:43:10;20.80;99.90
44047;DHT22;29713;-33.888;151.150;2022-12-07T15:45:57;20.80;99.90
44047;DHT22;29713;-33.888;151.150;2022-12-07T15:48:25;20.80;99.90
44047;DHT22;29713;-33.888;151.150;2022-12-07T15:50:53;20.80;99.90
44047;DHT22;29713;-33.888;151.150;2022-12-07T15:53:20;20.80;99.90
44047;DHT22;29713;-33.888;151.150;2022-12-07T15:55:47;20.80;99.90
44047;DHT22;29713;-33.888;151.150;2022-12-07T15:58:14;20.80;99.90
44047;DHT22;29713;-33.888;151.150;2022-12-07T16:00:42;20.70;99.90
44047;DHT22;29713;-33.888;151.150;2022-12-07T16:03:09;20.70;99.90
44047;DHT22;29713;-33.888;151.150;2022-12-07T16:05:36;20.70;99.90
44047;DHT22;29713;-33.888;151.150;2022-12-07T16:08:04;20.80;99.90
44047;DHT22;29713;-33.888;151.150;2022-12-07T16:10:31;20.70;99.90
44047;DHT22;29713;-33.888;151.150;2022-12-07T16:12:59;20.70;99.90
44047;DHT22;29713;-33.888;151.150;2022-12-07T16:15:26;20.70;99.90
44047;DHT22;29713;-33.888;151.150;2022-12-07T16:17:53;20.70;99.90
44047;DHT22;29713;-33.888;151.150;2022-12-07T16:20:22;20.60;99.90
44047;DHT22;29713;-33.888;151.150;2022-12-07T16:22:51;20.60;99.90
44047;DHT22;29713;-33.888;151.150;2022-12-07T16:25:19;20.60;99.90
44047;DHT22;29713;-33.888;151.150;2022-12-07T16:27:47;20.60;99.90
44047;DHT22;29713;-33.888;151.150;2022-12-07T16:30:15;20.60;99.90
44047;DHT22;29713;-33.888;151.150;2022-12-07T16:32:45;20.50;99.90
44047;DHT22;29713;-33.888;151.150;2022-12-07T16:35:13;20.50;99.90
44047;DHT22;29713;-33.888;151.150;2022-12-07T16:37:42;20.50;99.90
44047;DHT22;29713;-33.888;151.150;2022-12-07T16:40:10;20.50;99.90
44047;DHT22;29713;-33.888;151.150;2022-12-07T16:42:38;20.40;99.90
44047;DHT22;29713;-33.888;151.150;2022-12-07T16:45:06;20.40;99.90
44047;DHT22;29713;-33.888;151.150;2022-12-07T16:47:34;20.40;99.90
44047;DHT22;29713;-33.888;151.150;2022-12-07T16:50:04;20.30;99.90
44047;DHT22;29713;-33.888;151.150;2022-12-07T16:52:31;20.30;99.90
44047;DHT22;29713;-33.888;151.150;2022-12-07T16:55:00;20.30;99.90
44047;DHT22;29713;-33.888;151.150;2022-12-07T16:57:27;20.20;99.90
44047;DHT22;29713;-33.888;151.150;2022-12-07T16:59:57;20.20;99.90
44047;DHT22;29713;-33.888;151.150;2022-12-07T17:02:24;20.30;99.90
44047;DHT22;29713;-33.888;151.150;2022-12-07T17:04:52;20.20;99.90